createdAt,value
2018-08-25T00:02:20.476Z,100773.53
2018-08-25T00:04:48.944Z,100766.20
2018-08-25T00:07:17.729Z,100769.69
2018-08-25T00:09:46.176Z,100768.61
2018-08-25T00:12:14.628Z,100763.89
2018-08-25T00:14:43.222Z,100759.56
2018-08-25T00:17:11.666Z,100761.09
2018-08-25T00:19:40.252Z,100754.53
2018-08-25T00:22:08.963Z,100750.57
2018-08-25T00:24:37.407Z,100748.28
2018-08-25T00:27:06.096Z,100744.14
2018-08-25T00:29:34.522Z,100737.14
2018-08-25T00:32:02.983Z,100733.97
2018-08-25T00:34:31.430Z,100735.20
2018-08-25T00:37:00.231Z,100734.29
2018-08-25T00:39:28.733Z,100725.19
2018-08-25T00:41:57.151Z,100720.00
2018-08-25T00:44:25.630Z,100721.02
2018-08-25T00:46:54.128Z,100718.09
2018-08-25T00:49:22.705Z,100718.46
2018-08-25T00:51:51.160Z,100717.11
2018-08-25T00:54:19.617Z,100703.28
2018-08-25T00:56:48.166Z,100706.62
2018-08-25T00:59:16.647Z,100698.03
2018-08-25T01:01:45.561Z,100688.67
2018-08-25T01:04:14.019Z,100681.52
2018-08-25T01:06:42.455Z,100685.05
2018-08-25T01:09:11.186Z,100680.77
2018-08-25T01:11:39.656Z,100675.69
2018-08-25T01:14:08.148Z,100676.63
2018-08-25T01:16:36.664Z,100666.34
2018-08-25T01:19:05.249Z,100666.23
2018-08-25T01:21:33.721Z,100664.02
2018-08-25T01:24:02.209Z,100660.41
2018-08-25T01:26:30.636Z,100658.29
2018-08-25T01:28:59.082Z,100656.38
2018-08-25T01:31:29.337Z,100656.38
2018-08-25T01:33:59.354Z,100659.55
2018-08-25T01:36:27.871Z,100644.41
2018-08-25T01:38:56.350Z,100666.33
2018-08-25T01:41:25.140Z,100662.11
2018-08-25T01:43:53.607Z,100664.44
2018-08-25T01:46:22.072Z,100656.80
2018-08-25T01:48:50.593Z,100647.95
2018-08-25T01:51:19.043Z,100653.87
2018-08-25T01:53:47.529Z,100648.73
2018-08-25T01:56:15.974Z,100655.66
2018-08-25T01:58:44.816Z,100651.13
2018-08-25T02:01:13.288Z,100656.02
2018-08-25T02:03:41.765Z,100649.42
2018-08-25T02:06:10.212Z,100648.44
2018-08-25T02:08:38.699Z,100640.13
2018-08-25T02:11:07.196Z,100634.30
2018-08-25T02:13:35.628Z,100630.19
2018-08-25T02:16:04.065Z,100630.25
2018-08-25T02:18:32.520Z,100627.56
2018-08-25T02:21:00.983Z,100621.02
2018-08-25T02:23:29.539Z,100622.01
2018-08-25T02:25:57.985Z,100616.55
2018-08-25T02:28:26.430Z,100612.52
2018-08-25T02:30:54.875Z,100555.56
2018-08-25T02:33:23.343Z,100602.16
2018-08-25T02:35:51.767Z,100606.25
2018-08-25T02:38:20.250Z,100605.68
2018-08-25T02:40:48.711Z,100610.63
2018-08-25T02:43:17.178Z,100606.72
2018-08-25T02:45:45.667Z,100606.91
2018-08-25T02:48:14.142Z,100608.12
2018-08-25T02:50:42.630Z,100609.11
2018-08-25T02:53:11.058Z,100606.13
2018-08-25T02:55:39.873Z,100608.00
2018-08-25T02:58:08.401Z,100607.35
2018-08-25T03:00:36.865Z,100604.60
2018-08-25T03:03:05.327Z,100599.53
2018-08-25T03:05:33.808Z,100597.02
2018-08-25T03:08:02.275Z,100600.81
2018-08-25T03:10:30.770Z,100606.72
2018-08-25T03:12:59.292Z,100596.78
2018-08-25T03:15:27.703Z,100602.33
2018-08-25T03:17:56.161Z,100601.81
2018-08-25T03:20:24.618Z,100594.15
2018-08-25T03:22:53.075Z,100588.27
2018-08-25T03:25:21.953Z,100580.65
2018-08-25T03:27:50.387Z,100583.77
2018-08-25T03:30:18.844Z,100575.64
2018-08-25T03:32:47.317Z,100578.39
2018-08-25T03:35:15.757Z,100577.50
2018-08-25T03:37:44.251Z,100576.99
2018-08-25T03:40:12.984Z,100576.88
2018-08-25T03:42:41.464Z,100575.89
2018-08-25T03:45:09.940Z,100570.84
2018-08-25T03:47:38.391Z,100564.41
2018-08-25T03:50:06.895Z,100562.37
2018-08-25T03:52:35.336Z,100561.14
2018-08-25T03:55:03.864Z,100553.55
2018-08-25T03:57:32.325Z,100550.27
2018-08-25T04:00:00.781Z,100548.52
2018-08-25T04:02:29.376Z,100561.09
2018-08-25T04:04:57.861Z,100560.84
2018-08-25T04:07:26.301Z,100544.52
2018-08-25T04:09:54.772Z,100539.27
2018-08-25T04:12:23.184Z,100532.91
2018-08-25T04:14:51.712Z,100524.30
2018-08-25T04:17:20.194Z,100519.27
2018-08-25T04:19:48.629Z,100518.71
2018-08-25T04:22:17.232Z,100507.66
2018-08-25T04:24:45.627Z,100515.23
2018-08-25T04:27:14.056Z,100508.95
2018-08-25T04:29:42.511Z,100514.56
2018-08-25T04:32:10.980Z,100514.19
2018-08-25T04:34:39.442Z,100517.20
2018-08-25T04:37:07.892Z,100518.30
2018-08-25T04:39:36.386Z,100523.39
2018-08-25T04:42:04.892Z,100525.78
2018-08-25T04:44:33.332Z,100536.20
2018-08-25T04:47:01.847Z,100528.67
2018-08-25T04:49:30.296Z,100532.00
2018-08-25T04:51:58.771Z,100529.28
2018-08-25T04:54:27.287Z,100528.08
2018-08-25T04:56:55.792Z,100529.38
2018-08-25T04:59:24.216Z,100535.75
2018-08-25T05:01:52.751Z,100530.18
2018-08-25T05:04:21.208Z,100525.89
2018-08-25T05:06:49.692Z,100523.73
2018-08-25T05:09:18.120Z,100525.51
2018-08-25T05:11:46.548Z,100524.72
2018-08-25T05:14:15.018Z,100523.70
2018-08-25T05:16:43.459Z,100525.77
2018-08-25T05:19:11.921Z,100522.92
2018-08-25T05:21:40.344Z,100520.83
2018-08-25T05:24:08.816Z,100520.73
2018-08-25T05:26:37.316Z,100524.09
2018-08-25T05:29:05.781Z,100528.01
